Ty Ty, Georgia
Current Conditions -  °F | °C
As of 11:55 PM on Friday 19 Dec 2014 (Local Time) from KTMA Reporting Station
Light Rain Light Rain  
Wind Chill: 51°   Ceiling: 9000
Heat Index: 51°   Visibility: 10mi
Dew Point: 44°   Wind: 3mph
Humidity: 76%   Direction: 140°SE
Pressure: 30.15"   Gusts: NA
Location:  31.47°N, 83.65°W
Report Text: KTMA 200455Z AUTO 14003KT 10SM -RA OVC090 11/07 A3015 RMK AO2 T01080068
Loading
Personal Weather Stations






























Interactive Weather Map New forecast layout! Learn more

10-Day Weather Forecast

Advertisements
Track Severe Weather on mobile